Beloretsk, Russia
Current Conditions -  °F | °C
As of 2:30 PM on Monday 24 Nov 2014 (Local Time) from UWUU Reporting Station
Clear Clear  
Wind Chill:   Ceiling: Unl
Heat Index:   Visibility: 6mi
Dew Point: -2°   Wind: 2mph
Humidity: 67%   Direction: NA
Pressure: 30.8"   Gusts: NA
Location:  54.55°N, 56.32°E
Report Text: UWUU 240930Z VRB01MPS CAVOK M14/M19 Q1043 820///60 NOSIG RMKQFE771/1028
Loading
Personal Weather Stations






























Interactive Weather Map New forecast layout! Learn more

10-Day Weather Forecast

Advertisements
Track Severe Weather on mobile